createdAt,value
2022-08-30T00:00:05.036Z,100993.84
2022-08-30T00:02:34.060Z,100990.19
2022-08-30T00:05:02.454Z,100983.63
2022-08-30T00:07:30.914Z,100993.09
2022-08-30T00:09:58.461Z,100982.31
2022-08-30T00:12:26.867Z,100987.91
2022-08-30T00:14:54.455Z,100988.06
2022-08-30T00:17:22.135Z,100976.25
2022-08-30T00:19:49.684Z,100971.75
2022-08-30T00:22:17.212Z,100974.47
2022-08-30T00:24:46.952Z,100978.25
2022-08-30T00:27:14.676Z,100968.91
2022-08-30T00:29:42.646Z,100963.59
2022-08-30T00:32:10.267Z,100966.75
2022-08-30T00:34:37.786Z,100956.72
2022-08-30T00:37:05.305Z,100962.06
2022-08-30T00:39:32.775Z,100944.53
2022-08-30T00:42:00.668Z,100951.59
2022-08-30T00:44:28.185Z,100947.50
2022-08-30T00:46:55.745Z,100949.47
2022-08-30T00:49:23.817Z,100964.59
2022-08-30T00:51:52.320Z,100968.47
2022-08-30T00:54:20.211Z,100957.50
2022-08-30T00:56:49.441Z,100948.16
2022-08-30T00:59:17.734Z,100956.56
2022-08-30T01:01:46.237Z,100940.53
2022-08-30T01:04:15.269Z,100945.09
2022-08-30T01:06:42.801Z,100940.78
2022-08-30T01:09:10.350Z,100930.50
2022-08-30T01:11:41.332Z,100929.47
2022-08-30T01:14:11.709Z,100941.19
2022-08-30T01:16:41.725Z,100948.25
2022-08-30T01:19:34.699Z,100947.09
2022-08-30T01:22:09.207Z,100939.63
2022-08-30T01:24:37.402Z,100941.47
2022-08-30T01:27:05.032Z,100954.13
2022-08-30T01:29:32.776Z,100963.22
2022-08-30T01:32:00.321Z,100967.94
2022-08-30T01:34:27.758Z,100965.25
2022-08-30T01:36:55.274Z,100960.16
2022-08-30T01:39:23.064Z,100967.84
2022-08-30T01:41:50.641Z,100964.38
2022-08-30T01:44:18.206Z,100960.78
2022-08-30T01:46:47.697Z,100970.66
2022-08-30T01:49:17.506Z,100976.94
2022-08-30T01:51:50.728Z,100971.28
2022-08-30T01:54:28.512Z,100962.41
2022-08-30T01:57:05.713Z,100951.44
2022-08-30T01:59:33.353Z,100966.72
2022-08-30T02:02:00.953Z,100963.91
2022-08-30T02:04:28.460Z,100962.13
2022-08-30T02:06:56.029Z,100961.66
2022-08-30T02:09:23.952Z,100956.66
2022-08-30T02:11:52.000Z,100958.00
2022-08-30T02:14:21.188Z,100956.28
2022-08-30T02:16:49.072Z,100948.56
2022-08-30T02:19:18.079Z,100950.66
2022-08-30T02:21:45.566Z,100958.19
2022-08-30T02:24:13.098Z,100974.91
2022-08-30T02:26:40.805Z,100999.41
2022-08-30T02:29:08.954Z,101009.03
2022-08-30T02:31:36.693Z,101016.16
2022-08-30T02:34:07.195Z,100998.78
2022-08-30T02:36:37.684Z,100983.00
2022-08-30T02:39:05.437Z,100982.25
2022-08-30T02:41:32.931Z,100975.31
2022-08-30T02:44:00.689Z,100982.50
2022-08-30T02:46:33.287Z,100985.63
2022-08-30T02:49:13.073Z,100976.88
2022-08-30T02:51:50.157Z,100985.50
2022-08-30T02:54:20.122Z,100994.97
2022-08-30T02:56:48.910Z,101007.03
2022-08-30T02:59:18.866Z,101016.44
2022-08-30T03:01:47.635Z,101007.31
2022-08-30T03:04:16.293Z,100996.75
2022-08-30T03:06:43.732Z,100993.00
2022-08-30T03:09:11.211Z,100981.41
2022-08-30T03:11:38.626Z,100982.91
2022-08-30T03:14:06.172Z,100974.09
2022-08-30T03:16:33.736Z,100972.75
2022-08-30T03:19:01.117Z,100968.97
2022-08-30T03:21:28.545Z,100968.03
2022-08-30T03:23:56.028Z,100966.00
2022-08-30T03:26:23.467Z,100969.84
2022-08-30T03:28:50.876Z,100967.00
2022-08-30T03:31:18.271Z,100970.28
2022-08-30T03:33:45.915Z,100970.66
2022-08-30T03:36:13.335Z,100973.66
2022-08-30T03:38:40.737Z,100984.28
2022-08-30T03:41:08.658Z,100979.38
2022-08-30T03:43:36.653Z,100991.44
2022-08-30T03:46:05.221Z,100989.16
2022-08-30T03:48:32.732Z,100985.88
2022-08-30T03:51:00.288Z,100997.09
2022-08-30T03:53:27.756Z,101002.94
2022-08-30T03:55:55.255Z,101001.44
2022-08-30T03:58:25.212Z,100996.53
2022-08-30T04:00:52.702Z,101004.34
2022-08-30T04:03:25.842Z,101007.03
2022-08-30T04:05:54.937Z,101001.16
2022-08-30T04:08:22.994Z,101007.66
2022-08-30T04:10:51.033Z,101003.47
2022-08-30T04:13:18.472Z,101016.91
2022-08-30T04:15:45.900Z,101014.88
2022-08-30T04:18:13.369Z,101008.56
2022-08-30T04:20:41.228Z,101011.75
2022-08-30T04:23:08.868Z,101010.97
2022-08-30T04:25:38.007Z,101012.72
2022-08-30T04:28:06.362Z,100999.41
2022-08-30T04:30:38.200Z,100991.69
2022-08-30T04:33:05.799Z,100979.78
2022-08-30T04:35:36.077Z,100993.16
2022-08-30T04:38:03.891Z,100992.22
2022-08-30T04:40:31.432Z,100993.84
2022-08-30T04:42:59.450Z,101000.31
2022-08-30T04:45:29.392Z,100997.19
2022-08-30T04:47:57.297Z,100996.53
2022-08-30T04:50:25.397Z,101008.34
2022-08-30T04:52:52.848Z,101009.63
2022-08-30T07:33:22.839Z,101063.06
2022-08-30T07:39:26.180Z,101074.53
2022-08-30T07:41:56.059Z,101053.91
2022-08-30T07:44:36.815Z,101060.16
2022-08-30T07:48:03.676Z,101058.53
2022-08-30T07:55:51.046Z,101080.28
2022-08-30T07:58:31.440Z,101075.66
2022-08-30T08:01:48.970Z,101075.81
2022-08-30T08:04:56.424Z,101091.59
2022-08-30T08:07:27.133Z,101086.84
2022-08-30T08:19:09.481Z,101087.41
2022-08-30T08:34:42.744Z,101077.06
2022-08-30T08:43:58.547Z,101087.94
2022-08-30T08:47:35.499Z,101086.06
2022-08-30T08:50:20.702Z,101080.22
2022-08-30T08:53:47.349Z,101075.94
2022-08-30T08:56:44.410Z,101070.06
2022-08-30T08:59:47.855Z,101067.44
2022-08-30T09:03:37.911Z,101071.34
2022-08-30T09:07:15.042Z,101078.72
2022-08-30T11:35:50.002Z,100990.66
2022-08-30T11:38:40.000Z,100996.78
2022-08-30T11:41:14.645Z,100985.81
2022-08-30T11:43:43.104Z,100988.66
2022-08-30T11:46:34.733Z,100984.66
2022-08-30T11:49:15.614Z,100977.41
2022-08-30T11:52:26.549Z,100981.44
2022-08-30T11:55:19.237Z,100963.25
2022-08-30T11:58:11.677Z,100969.31
2022-08-30T12:00:53.570Z,100962.69
2022-08-30T12:04:26.447Z,100961.38
2022-08-30T12:07:06.821Z,100955.69
2022-08-30T12:09:39.135Z,100950.72
2022-08-30T12:12:35.201Z,100947.22
2022-08-30T12:15:05.343Z,100957.06
2022-08-30T12:18:16.077Z,100947.97
2022-08-30T12:20:50.329Z,100930.28
2022-08-30T12:23:46.813Z,100941.19
2022-08-30T12:26:31.411Z,100932.16
2022-08-30T12:29:21.177Z,100949.84
2022-08-30T12:31:58.266Z,100946.97
2022-08-30T12:34:41.278Z,100935.34
2022-08-30T12:37:26.828Z,100937.50
2022-08-30T12:40:15.786Z,100928.94
2022-08-30T12:43:00.877Z,100931.19
2022-08-30T12:45:44.295Z,100922.22
2022-08-30T12:48:17.431Z,100927.28
2022-08-30T12:50:53.719Z,100924.97
2022-08-30T12:53:42.843Z,100917.53
2022-08-30T12:56:35.022Z,100914.97
2022-08-30T12:59:13.076Z,100919.50
2022-08-30T13:02:20.276Z,100918.59
2022-08-30T13:05:45.456Z,100917.81
2022-08-30T13:08:57.394Z,100919.56
2022-08-30T13:11:29.494Z,100912.78
2022-08-30T13:14:37.316Z,100902.19
2022-08-30T13:17:27.528Z,100891.38
2022-08-30T13:20:12.059Z,100890.25
2022-08-30T13:23:00.536Z,100888.41
2022-08-30T13:25:29.019Z,100889.09
2022-08-30T13:27:57.515Z,100892.38
2022-08-30T13:30:29.962Z,100896.19
2022-08-30T13:36:35.890Z,100880.69
2022-08-30T13:39:34.399Z,100873.59
2022-08-30T13:49:06.054Z,100854.75
2022-08-30T13:51:33.765Z,100857.56
2022-08-30T13:54:32.734Z,100854.19
2022-08-30T13:57:06.753Z,100844.09
2022-08-30T13:59:34.711Z,100837.69
2022-08-30T14:02:08.320Z,100841.47
2022-08-30T14:05:50.621Z,100822.38
2022-08-30T14:08:52.377Z,100823.13
2022-08-30T14:12:02.259Z,100801.59
2022-08-30T14:14:43.295Z,100803.75
2022-08-30T14:17:12.531Z,100800.44
2022-08-30T14:19:42.857Z,100794.22
2022-08-30T14:33:58.766Z,100777.44
2022-08-30T14:41:32.209Z,100785.00
2022-08-30T14:44:11.090Z,100773.78
2022-08-30T14:50:38.032Z,100760.66
2022-08-30T14:53:08.474Z,100761.53
2022-08-30T14:59:10.161Z,100756.63
2022-08-30T15:08:20.268Z,100751.16
2022-08-30T15:11:12.366Z,100743.47
2022-08-30T15:13:52.966Z,100745.00
2022-08-30T15:16:38.592Z,100735.38
2022-08-30T15:19:19.151Z,100746.25
2022-08-30T17:44:56.034Z,100763.84
2022-08-30T19:27:37.193Z,100801.59
2022-08-30T19:44:22.472Z,100795.22
2022-08-30T20:04:05.379Z,100809.72
2022-08-30T21:19:35.804Z,100753.38
